sensor_id;sensor_type;location;lat;lon;timestamp;P1;durP1;ratioP1;P2;durP2;ratioP2
57341;SDS011;43175;51.002;18.316;2022-10-16T00:01:04;22.10;;;13.10;;
57341;SDS011;43175;51.002;18.316;2022-10-16T00:03:31;22.40;;;12.90;;
57341;SDS011;43175;51.002;18.316;2022-10-16T00:05:58;24.20;;;13.00;;
57341;SDS011;43175;51.002;18.316;2022-10-16T00:08:25;22.10;;;13.10;;
57341;SDS011;43175;51.002;18.316;2022-10-16T00:10:51;22.20;;;13.20;;
57341;SDS011;43175;51.002;18.316;2022-10-16T00:13:16;20.90;;;13.30;;
57341;SDS011;43175;51.002;18.316;2022-10-16T00:15:43;22.60;;;13.90;;
57341;SDS011;43175;51.002;18.316;2022-10-16T00:18:09;23.90;;;13.90;;
57341;SDS011;43175;51.002;18.316;2022-10-16T00:20:35;23.40;;;13.50;;
57341;SDS011;43175;51.002;18.316;2022-10-16T00:23:02;23.20;;;13.90;;
57341;SDS011;43175;51.002;18.316;2022-10-16T00:25:29;22.50;;;13.70;;
57341;SDS011;43175;51.002;18.316;2022-10-16T00:27:58;26.80;;;14.80;;
57341;SDS011;43175;51.002;18.316;2022-10-16T00:30:24;25.90;;;15.80;;
57341;SDS011;43175;51.002;18.316;2022-10-16T00:32:52;26.30;;;15.60;;
57341;SDS011;43175;51.002;18.316;2022-10-16T00:35:17;26.90;;;16.40;;
57341;SDS011;43175;51.002;18.316;2022-10-16T00:37:43;24.30;;;15.20;;
57341;SDS011;43175;51.002;18.316;2022-10-16T00:40:09;27.60;;;15.60;;
57341;SDS011;43175;51.002;18.316;2022-10-16T00:42:35;26.50;;;16.20;;
57341;SDS011;43175;51.002;18.316;2022-10-16T00:45:01;27.90;;;16.40;;
57341;SDS011;43175;51.002;18.316;2022-10-16T00:47:29;27.20;;;16.70;;
57341;SDS011;43175;51.002;18.316;2022-10-16T00:50:02;27.30;;;16.60;;
57341;SDS011;43175;51.002;18.316;2022-10-16T00:52:32;29.40;;;16.90;;
57341;SDS011;43175;51.002;18.316;2022-10-16T00:54:58;26.10;;;16.40;;
57341;SDS011;43175;51.002;18.316;2022-10-16T00:57:23;28.80;;;16.70;;
57341;SDS011;43175;51.002;18.316;2022-10-16T00:59:50;28.70;;;17.00;;
57341;SDS011;43175;51.002;18.316;2022-10-16T01:02:16;31.20;;;17.50;;
57341;SDS011;43175;51.002;18.316;2022-10-16T01:04:46;30.20;;;17.60;;
57341;SDS011;43175;51.002;18.316;2022-10-16T01:07:16;30.50;;;17.70;;
57341;SDS011;43175;51.002;18.316;2022-10-16T01:15:32;28.90;;;18.00;;
57341;SDS011;43175;51.002;18.316;2022-10-16T01:18:01;31.40;;;18.80;;
57341;SDS011;43175;51.002;18.316;2022-10-16T01:20:54;31.90;;;18.60;;
57341;SDS011;43175;51.002;18.316;2022-10-16T01:26:08;30.70;;;18.40;;
57341;SDS011;43175;51.002;18.316;2022-10-16T01:28:54;30.80;;;18.40;;
57341;SDS011;43175;51.002;18.316;2022-10-16T01:31:23;32.20;;;19.50;;
57341;SDS011;43175;51.002;18.316;2022-10-16T01:33:55;32.90;;;19.30;;
57341;SDS011;43175;51.002;18.316;2022-10-16T01:36:25;32.00;;;19.30;;
57341;SDS011;43175;51.002;18.316;2022-10-16T01:38:54;35.00;;;20.50;;
57341;SDS011;43175;51.002;18.316;2022-10-16T01:41:26;33.00;;;20.10;;
57341;SDS011;43175;51.002;18.316;2022-10-16T01:44:06;32.60;;;19.90;;
57341;SDS011;43175;51.002;18.316;2022-10-16T01:46:36;30.70;;;19.30;;
57341;SDS011;43175;51.002;18.316;2022-10-16T01:49:02;34.90;;;20.10;;
57341;SDS011;43175;51.002;18.316;2022-10-16T01:51:28;32.80;;;20.60;;
57341;SDS011;43175;51.002;18.316;2022-10-16T01:53:55;35.40;;;21.50;;
57341;SDS011;43175;51.002;18.316;2022-10-16T01:56:23;31.90;;;19.00;;
57341;SDS011;43175;51.002;18.316;2022-10-16T01:58:51;32.60;;;19.90;;
57341;SDS011;43175;51.002;18.316;2022-10-16T02:01:19;32.00;;;19.70;;
57341;SDS011;43175;51.002;18.316;2022-10-16T02:03:45;30.80;;;19.50;;
57341;SDS011;43175;51.002;18.316;2022-10-16T02:06:12;32.60;;;20.40;;
57341;SDS011;43175;51.002;18.316;2022-10-16T02:08:37;31.90;;;20.10;;
57341;SDS011;43175;51.002;18.316;2022-10-16T02:11:05;32.30;;;19.30;;
57341;SDS011;43175;51.002;18.316;2022-10-16T02:13:42;30.90;;;19.50;;
57341;SDS011;43175;51.002;18.316;2022-10-16T02:16:11;34.10;;;19.80;;
57341;SDS011;43175;51.002;18.316;2022-10-16T02:18:38;33.70;;;19.60;;
57341;SDS011;43175;51.002;18.316;2022-10-16T02:23:45;34.90;;;20.80;;
57341;SDS011;43175;51.002;18.316;2022-10-16T02:26:42;33.50;;;18.70;;
57341;SDS011;43175;51.002;18.316;2022-10-16T02:29:12;32.20;;;19.40;;
57341;SDS011;43175;51.002;18.316;2022-10-16T02:31:43;31.90;;;19.40;;
57341;SDS011;43175;51.002;18.316;2022-10-16T02:34:10;33.70;;;19.60;;
57341;SDS011;43175;51.002;18.316;2022-10-16T02:36:37;30.60;;;18.90;;
57341;SDS011;43175;51.002;18.316;2022-10-16T02:39:04;32.70;;;19.90;;
57341;SDS011;43175;51.002;18.316;2022-10-16T02:41:30;34.30;;;19.10;;
57341;SDS011;43175;51.002;18.316;2022-10-16T02:43:56;29.60;;;18.50;;
57341;SDS011;43175;51.002;18.316;2022-10-16T02:46:22;31.60;;;18.90;;
57341;SDS011;43175;51.002;18.316;2022-10-16T02:48:47;31.50;;;19.60;;
57341;SDS011;43175;51.002;18.316;2022-10-16T02:51:13;30.10;;;18.70;;
57341;SDS011;43175;51.002;18.316;2022-10-16T02:53:39;31.40;;;18.60;;
57341;SDS011;43175;51.002;18.316;2022-10-16T02:56:04;30.90;;;18.30;;
57341;SDS011;43175;51.002;18.316;2022-10-16T02:58:30;29.70;;;17.80;;
57341;SDS011;43175;51.002;18.316;2022-10-16T03:00:55;29.90;;;17.50;;
57341;SDS011;43175;51.002;18.316;2022-10-16T03:03:21;28.10;;;17.30;;
57341;SDS011;43175;51.002;18.316;2022-10-16T03:05:46;29.30;;;17.80;;
57341;SDS011;43175;51.002;18.316;2022-10-16T03:08:12;28.20;;;17.90;;
57341;SDS011;43175;51.002;18.316;2022-10-16T03:10:38;26.80;;;16.80;;
57341;SDS011;43175;51.002;18.316;2022-10-16T03:13:03;27.10;;;17.60;;
57341;SDS011;43175;51.002;18.316;2022-10-16T03:15:29;29.80;;;17.70;;
57341;SDS011;43175;51.002;18.316;2022-10-16T03:17:58;28.70;;;18.10;;
57341;SDS011;43175;51.002;18.316;2022-10-16T03:20:24;26.90;;;17.00;;
57341;SDS011;43175;51.002;18.316;2022-10-16T03:22:50;27.90;;;16.80;;
57341;SDS011;43175;51.002;18.316;2022-10-16T03:25:16;27.30;;;17.30;;
57341;SDS011;43175;51.002;18.316;2022-10-16T03:27:41;26.80;;;16.90;;
57341;SDS011;43175;51.002;18.316;2022-10-16T03:30:07;24.80;;;15.90;;
57341;SDS011;43175;51.002;18.316;2022-10-16T03:32:33;27.00;;;16.20;;
57341;SDS011;43175;51.002;18.316;2022-10-16T03:34:59;26.80;;;16.70;;
57341;SDS011;43175;51.002;18.316;2022-10-16T03:37:24;25.50;;;16.60;;
57341;SDS011;43175;51.002;18.316;2022-10-16T03:39:50;27.00;;;16.70;;
57341;SDS011;43175;51.002;18.316;2022-10-16T03:42:15;27.20;;;16.30;;
57341;SDS011;43175;51.002;18.316;2022-10-16T03:44:41;24.90;;;16.10;;
57341;SDS011;43175;51.002;18.316;2022-10-16T03:47:06;28.60;;;16.60;;
57341;SDS011;43175;51.002;18.316;2022-10-16T03:49:31;25.40;;;15.70;;
57341;SDS011;43175;51.002;18.316;2022-10-16T03:51:57;27.70;;;15.60;;
57341;SDS011;43175;51.002;18.316;2022-10-16T03:54:22;25.30;;;15.40;;
57341;SDS011;43175;51.002;18.316;2022-10-16T03:56:48;24.50;;;16.10;;
57341;SDS011;43175;51.002;18.316;2022-10-16T03:59:14;27.50;;;16.10;;
57341;SDS011;43175;51.002;18.316;2022-10-16T04:01:39;28.20;;;15.60;;
57341;SDS011;43175;51.002;18.316;2022-10-16T04:04:05;25.60;;;16.10;;
57341;SDS011;43175;51.002;18.316;2022-10-16T04:06:30;25.80;;;15.70;;
57341;SDS011;43175;51.002;18.316;2022-10-16T04:08:56;24.90;;;15.10;;
57341;SDS011;43175;51.002;18.316;2022-10-16T04:11:21;24.80;;;15.30;;
57341;SDS011;43175;51.002;18.316;2022-10-16T04:13:47;24.20;;;15.80;;
57341;SDS011;43175;51.002;18.316;2022-10-16T04:16:12;26.20;;;16.10;;
57341;SDS011;43175;51.002;18.316;2022-10-16T04:18:38;26.50;;;16.00;;
57341;SDS011;43175;51.002;18.316;2022-10-16T04:21:04;28.60;;;15.40;;
57341;SDS011;43175;51.002;18.316;2022-10-16T04:23:30;25.20;;;16.20;;
57341;SDS011;43175;51.002;18.316;2022-10-16T04:25:56;24.80;;;16.10;;
57341;SDS011;43175;51.002;18.316;2022-10-16T04:28:21;24.80;;;15.60;;
57341;SDS011;43175;51.002;18.316;2022-10-16T04:30:47;27.80;;;16.90;;
57341;SDS011;43175;51.002;18.316;2022-10-16T04:33:12;27.50;;;17.00;;
57341;SDS011;43175;51.002;18.316;2022-10-16T04:35:38;27.00;;;16.90;;
57341;SDS011;43175;51.002;18.316;2022-10-16T04:38:03;26.50;;;17.00;;
57341;SDS011;43175;51.002;18.316;2022-10-16T04:40:29;28.50;;;17.40;;
57341;SDS011;43175;51.002;18.316;2022-10-16T04:42:58;27.50;;;17.10;;
57341;SDS011;43175;51.002;18.316;2022-10-16T04:45:24;27.40;;;16.90;;
57341;SDS011;43175;51.002;18.316;2022-10-16T04:47:50;28.40;;;17.40;;
57341;SDS011;43175;51.002;18.316;2022-10-16T04:50:15;28.60;;;16.90;;
57341;SDS011;43175;51.002;18.316;2022-10-16T04:52:41;28.90;;;17.10;;
57341;SDS011;43175;51.002;18.316;2022-10-16T04:55:07;27.60;;;17.10;;
57341;SDS011;43175;51.002;18.316;2022-10-16T04:57:32;27.10;;;17.50;;
57341;SDS011;43175;51.002;18.316;2022-10-16T04:59:58;27.80;;;17.70;;
57341;SDS011;43175;51.002;18.316;2022-10-16T05:02:24;29.60;;;18.40;;
57341;SDS011;43175;51.002;18.316;2022-10-16T05:04:50;30.70;;;18.90;;
57341;SDS011;43175;51.002;18.316;2022-10-16T05:07:16;31.30;;;19.00;;
57341;SDS011;43175;51.002;18.316;2022-10-16T05:09:42;30.20;;;19.50;;
57341;SDS011;43175;51.002;18.316;2022-10-16T05:12:07;32.00;;;20.30;;
57341;SDS011;43175;51.002;18.316;2022-10-16T05:14:33;33.10;;;20.00;;
57341;SDS011;43175;51.002;18.316;2022-10-16T05:16:59;30.10;;;19.20;;
57341;SDS011;43175;51.002;18.316;2022-10-16T05:19:25;33.20;;;19.80;;
57341;SDS011;43175;51.002;18.316;2022-10-16T05:21:51;32.40;;;20.00;;
57341;SDS011;43175;51.002;18.316;2022-10-16T05:24:16;33.00;;;20.30;;
57341;SDS011;43175;51.002;18.316;2022-10-16T05:26:42;32.80;;;20.70;;
57341;SDS011;43175;51.002;18.316;2022-10-16T05:29:07;31.70;;;20.10;;
57341;SDS011;43175;51.002;18.316;2022-10-16T05:31:34;31.90;;;19.90;;
57341;SDS011;43175;51.002;18.316;2022-10-16T05:33:59;35.60;;;22.20;;
57341;SDS011;43175;51.002;18.316;2022-10-16T05:36:25;36.00;;;21.50;;
57341;SDS011;43175;51.002;18.316;2022-10-16T05:38:51;33.90;;;20.90;;
57341;SDS011;43175;51.002;18.316;2022-10-16T05:41:17;34.20;;;21.10;;
57341;SDS011;43175;51.002;18.316;2022-10-16T05:43:47;32.40;;;20.90;;
57341;SDS011;43175;51.002;18.316;2022-10-16T05:46:13;34.00;;;21.80;;
57341;SDS011;43175;51.002;18.316;2022-10-16T05:48:39;32.80;;;20.70;;
57341;SDS011;43175;51.002;18.316;2022-10-16T05:51:08;31.90;;;20.20;;
57341;SDS011;43175;51.002;18.316;2022-10-16T05:53:37;32.60;;;21.60;;
57341;SDS011;43175;51.002;18.316;2022-10-16T05:56:04;34.40;;;22.20;;
57341;SDS011;43175;51.002;18.316;2022-10-16T05:58:31;35.30;;;21.80;;
57341;SDS011;43175;51.002;18.316;2022-10-16T06:01:02;32.80;;;21.40;;
57341;SDS011;43175;51.002;18.316;2022-10-16T06:03:29;34.20;;;21.20;;
57341;SDS011;43175;51.002;18.316;2022-10-16T06:05:55;36.10;;;22.70;;
57341;SDS011;43175;51.002;18.316;2022-10-16T06:08:21;35.30;;;21.20;;
57341;SDS011;43175;51.002;18.316;2022-10-16T06:10:48;34.80;;;21.90;;
57341;SDS011;43175;51.002;18.316;2022-10-16T06:13:14;34.40;;;22.30;;
57341;SDS011;43175;51.002;18.316;2022-10-16T06:15:40;33.30;;;21.80;;
57341;SDS011;43175;51.002;18.316;2022-10-16T06:18:10;36.10;;;22.70;;
57341;SDS011;43175;51.002;18.316;2022-10-16T06:20:36;32.60;;;21.20;;
57341;SDS011;43175;51.002;18.316;2022-10-16T06:23:02;35.20;;;22.10;;
57341;SDS011;43175;51.002;18.316;2022-10-16T06:25:29;32.90;;;21.10;;
57341;SDS011;43175;51.002;18.316;2022-10-16T06:27:56;32.30;;;21.90;;
57341;SDS011;43175;51.002;18.316;2022-10-16T06:30:22;31.90;;;21.00;;
57341;SDS011;43175;51.002;18.316;2022-10-16T06:32:47;31.70;;;21.20;;
57341;SDS011;43175;51.002;18.316;2022-10-16T06:35:13;33.80;;;22.30;;
57341;SDS011;43175;51.002;18.316;2022-10-16T06:37:38;33.10;;;21.90;;
57341;SDS011;43175;51.002;18.316;2022-10-16T06:40:04;32.80;;;21.30;;
57341;SDS011;43175;51.002;18.316;2022-10-16T06:42:30;32.90;;;21.40;;
57341;SDS011;43175;51.002;18.316;2022-10-16T06:44:55;31.40;;;20.40;;
57341;SDS011;43175;51.002;18.316;2022-10-16T06:47:21;32.00;;;21.20;;
57341;SDS011;43175;51.002;18.316;2022-10-16T06:49:47;31.50;;;21.10;;
57341;SDS011;43175;51.002;18.316;2022-10-16T06:52:13;32.30;;;21.00;;
57341;SDS011;43175;51.002;18.316;2022-10-16T06:54:38;31.90;;;20.90;;
57341;SDS011;43175;51.002;18.316;2022-10-16T06:57:04;33.20;;;21.10;;
57341;SDS011;43175;51.002;18.316;2022-10-16T06:59:29;29.80;;;20.20;;
57341;SDS011;43175;51.002;18.316;2022-10-16T07:01:54;30.50;;;19.70;;
57341;SDS011;43175;51.002;18.316;2022-10-16T07:04:20;29.60;;;20.80;;
57341;SDS011;43175;51.002;18.316;2022-10-16T07:06:45;32.10;;;20.90;;
57341;SDS011;43175;51.002;18.316;2022-10-16T07:09:11;31.00;;;20.70;;
57341;SDS011;43175;51.002;18.316;2022-10-16T07:11:38;29.50;;;20.40;;
57341;SDS011;43175;51.002;18.316;2022-10-16T07:14:04;29.20;;;20.50;;
57341;SDS011;43175;51.002;18.316;2022-10-16T07:16:31;30.10;;;19.70;;
57341;SDS011;43175;51.002;18.316;2022-10-16T07:18:58;31.10;;;19.60;;
57341;SDS011;43175;51.002;18.316;2022-10-16T07:21:26;31.20;;;20.00;;
57341;SDS011;43175;51.002;18.316;2022-10-16T07:23:55;29.30;;;20.30;;
57341;SDS011;43175;51.002;18.316;2022-10-16T07:26:22;28.30;;;18.60;;
57341;SDS011;43175;51.002;18.316;2022-10-16T07:28:49;28.40;;;18.60;;
57341;SDS011;43175;51.002;18.316;2022-10-16T07:31:16;28.90;;;19.10;;
57341;SDS011;43175;51.002;18.316;2022-10-16T07:33:43;27.60;;;18.00;;
57341;SDS011;43175;51.002;18.316;2022-10-16T07:36:11;29.20;;;18.80;;
57341;SDS011;43175;51.002;18.316;2022-10-16T07:38:37;27.00;;;18.80;;
57341;SDS011;43175;51.002;18.316;2022-10-16T07:41:04;26.80;;;17.80;;
57341;SDS011;43175;51.002;18.316;2022-10-16T07:43:31;28.60;;;17.70;;
57341;SDS011;43175;51.002;18.316;2022-10-16T07:45:57;26.70;;;18.50;;
57341;SDS011;43175;51.002;18.316;2022-10-16T07:48:23;26.30;;;18.50;;
57341;SDS011;43175;51.002;18.316;2022-10-16T07:50:49;27.50;;;18.20;;
57341;SDS011;43175;51.002;18.316;2022-10-16T07:53:15;24.20;;;16.80;;
57341;SDS011;43175;51.002;18.316;2022-10-16T07:55:41;28.40;;;18.40;;
57341;SDS011;43175;51.002;18.316;2022-10-16T07:58:07;26.20;;;17.00;;
57341;SDS011;43175;51.002;18.316;2022-10-16T08:00:32;25.00;;;16.60;;
57341;SDS011;43175;51.002;18.316;2022-10-16T08:02:58;25.60;;;16.90;;
57341;SDS011;43175;51.002;18.316;2022-10-16T08:05:30;24.60;;;16.00;;
57341;SDS011;43175;51.002;18.316;2022-10-16T08:07:56;23.50;;;15.70;;
57341;SDS011;43175;51.002;18.316;2022-10-16T08:10:23;23.90;;;15.30;;
57341;SDS011;43175;51.002;18.316;2022-10-16T08:12:50;24.00;;;15.90;;
57341;SDS011;43175;51.002;18.316;2022-10-16T08:15:16;21.30;;;14.20;;
57341;SDS011;43175;51.002;18.316;2022-10-16T08:17:42;24.40;;;15.40;;
57341;SDS011;43175;51.002;18.316;2022-10-16T08:20:08;24.60;;;15.00;;
57341;SDS011;43175;51.002;18.316;2022-10-16T08:22:34;24.10;;;15.30;;
57341;SDS011;43175;51.002;18.316;2022-10-16T08:24:59;23.80;;;14.80;;
57341;SDS011;43175;51.002;18.316;2022-10-16T08:27:30;21.00;;;14.80;;
57341;SDS011;43175;51.002;18.316;2022-10-16T08:29:56;24.00;;;14.30;;
57341;SDS011;43175;51.002;18.316;2022-10-16T08:32:21;20.90;;;13.90;;
57341;SDS011;43175;51.002;18.316;2022-10-16T08:34:47;23.70;;;14.50;;
57341;SDS011;43175;51.002;18.316;2022-10-16T08:37:12;21.20;;;14.10;;
57341;SDS011;43175;51.002;18.316;2022-10-16T08:39:38;22.70;;;13.80;;
57341;SDS011;43175;51.002;18.316;2022-10-16T08:42:07;23.10;;;15.10;;
57341;SDS011;43175;51.002;18.316;2022-10-16T08:47:44;21.50;;;13.90;;
57341;SDS011;43175;51.002;18.316;2022-10-16T08:50:12;23.20;;;14.60;;
57341;SDS011;43175;51.002;18.316;2022-10-16T08:52:40;23.80;;;14.80;;
57341;SDS011;43175;51.002;18.316;2022-10-16T08:55:11;22.10;;;14.40;;
57341;SDS011;43175;51.002;18.316;2022-10-16T08:57:45;20.30;;;14.00;;
57341;SDS011;43175;51.002;18.316;2022-10-16T09:00:13;23.10;;;14.00;;
57341;SDS011;43175;51.002;18.316;2022-10-16T09:02:52;22.50;;;13.80;;
57341;SDS011;43175;51.002;18.316;2022-10-16T09:05:33;21.40;;;13.40;;
57341;SDS011;43175;51.002;18.316;2022-10-16T09:11:04;23.20;;;13.60;;
57341;SDS011;43175;51.002;18.316;2022-10-16T09:13:50;20.80;;;13.20;;
57341;SDS011;43175;51.002;18.316;2022-10-16T09:16:23;20.80;;;13.10;;
57341;SDS011;43175;51.002;18.316;2022-10-16T09:21:40;25.30;;;13.00;;
57341;SDS011;43175;51.002;18.316;2022-10-16T09:24:10;18.90;;;12.30;;
57341;SDS011;43175;51.002;18.316;2022-10-16T09:26:38;20.70;;;13.20;;
57341;SDS011;43175;51.002;18.316;2022-10-16T09:29:04;20.40;;;12.80;;
57341;SDS011;43175;51.002;18.316;2022-10-16T09:31:29;21.20;;;12.80;;
57341;SDS011;43175;51.002;18.316;2022-10-16T09:33:57;21.00;;;13.30;;
57341;SDS011;43175;51.002;18.316;2022-10-16T09:36:25;20.90;;;13.10;;
57341;SDS011;43175;51.002;18.316;2022-10-16T09:39:06;22.40;;;13.00;;
57341;SDS011;43175;51.002;18.316;2022-10-16T09:41:37;20.40;;;13.20;;
57341;SDS011;43175;51.002;18.316;2022-10-16T09:44:04;21.70;;;12.40;;
57341;SDS011;43175;51.002;18.316;2022-10-16T09:46:40;21.60;;;12.70;;
57341;SDS011;43175;51.002;18.316;2022-10-16T09:49:22;21.30;;;13.00;;
57341;SDS011;43175;51.002;18.316;2022-10-16T09:51:49;19.50;;;12.20;;
57341;SDS011;43175;51.002;18.316;2022-10-16T09:54:16;20.10;;;12.40;;
57341;SDS011;43175;51.002;18.316;2022-10-16T09:56:43;19.30;;;12.40;;
57341;SDS011;43175;51.002;18.316;2022-10-16T09:59:12;20.60;;;12.40;;
57341;SDS011;43175;51.002;18.316;2022-10-16T10:01:40;21.00;;;12.50;;
57341;SDS011;43175;51.002;18.316;2022-10-16T10:04:08;20.60;;;12.30;;
57341;SDS011;43175;51.002;18.316;2022-10-16T10:06:34;20.50;;;12.90;;
57341;SDS011;43175;51.002;18.316;2022-10-16T10:09:06;20.00;;;11.30;;
57341;SDS011;43175;51.002;18.316;2022-10-16T10:14:20;20.00;;;12.10;;
57341;SDS011;43175;51.002;18.316;2022-10-16T10:16:48;17.70;;;11.30;;
57341;SDS011;43175;51.002;18.316;2022-10-16T10:19:23;19.70;;;11.40;;
57341;SDS011;43175;51.002;18.316;2022-10-16T10:21:49;19.90;;;11.80;;
57341;SDS011;43175;51.002;18.316;2022-10-16T10:24:17;17.40;;;11.10;;
57341;SDS011;43175;51.002;18.316;2022-10-16T10:26:56;20.40;;;11.60;;
57341;SDS011;43175;51.002;18.316;2022-10-16T10:32:28;19.20;;;11.40;;
57341;SDS011;43175;51.002;18.316;2022-10-16T10:37:33;20.10;;;11.90;;
57341;SDS011;43175;51.002;18.316;2022-10-16T10:40:07;18.50;;;11.50;;
57341;SDS011;43175;51.002;18.316;2022-10-16T10:42:44;21.30;;;11.40;;
57341;SDS011;43175;51.002;18.316;2022-10-16T10:45:26;19.80;;;11.40;;
57341;SDS011;43175;51.002;18.316;2022-10-16T10:48:10;21.70;;;11.90;;
57341;SDS011;43175;51.002;18.316;2022-10-16T10:56:17;20.20;;;11.60;;
57341;SDS011;43175;51.002;18.316;2022-10-16T11:01:25;17.40;;;10.70;;
57341;SDS011;43175;51.002;18.316;2022-10-16T11:07:05;17.70;;;10.90;;
57341;SDS011;43175;51.002;18.316;2022-10-16T11:09:48;17.20;;;11.10;;
57341;SDS011;43175;51.002;18.316;2022-10-16T11:12:52;18.50;;;11.30;;
57341;SDS011;43175;51.002;18.316;2022-10-16T11:15:21;18.00;;;10.40;;
57341;SDS011;43175;51.002;18.316;2022-10-16T11:20:33;17.50;;;10.50;;
57341;SDS011;43175;51.002;18.316;2022-10-16T11:25:46;18.50;;;10.50;;
57341;SDS011;43175;51.002;18.316;2022-10-16T11:28:20;17.30;;;9.80;;
57341;SDS011;43175;51.002;18.316;2022-10-16T11:31:00;17.30;;;10.40;;
57341;SDS011;43175;51.002;18.316;2022-10-16T11:33:37;18.40;;;10.40;;
57341;SDS011;43175;51.002;18.316;2022-10-16T11:36:52;19.50;;;10.70;;
57341;SDS011;43175;51.002;18.316;2022-10-16T11:44:38;17.50;;;10.80;;
57341;SDS011;43175;51.002;18.316;2022-10-16T11:49:50;17.40;;;11.20;;
57341;SDS011;43175;51.002;18.316;2022-10-16T11:52:23;17.00;;;10.50;;
57341;SDS011;43175;51.002;18.316;2022-10-16T11:55:04;19.30;;;11.20;;
57341;SDS011;43175;51.002;18.316;2022-10-16T11:57:35;18.20;;;10.80;;
57341;SDS011;43175;51.002;18.316;2022-10-16T12:08:33;20.00;;;11.20;;
57341;SDS011;43175;51.002;18.316;2022-10-16T12:13:48;17.70;;;11.00;;
57341;SDS011;43175;51.002;18.316;2022-10-16T12:18:40;17.90;;;10.10;;
57341;SDS011;43175;51.002;18.316;2022-10-16T12:21:07;16.00;;;10.20;;
57341;SDS011;43175;51.002;18.316;2022-10-16T12:23:36;15.80;;;10.10;;
57341;SDS011;43175;51.002;18.316;2022-10-16T12:26:03;15.00;;;9.30;;
57341;SDS011;43175;51.002;18.316;2022-10-16T12:28:29;18.40;;;10.30;;
57341;SDS011;43175;51.002;18.316;2022-10-16T12:30:57;15.90;;;9.20;;
57341;SDS011;43175;51.002;18.316;2022-10-16T12:33:34;18.00;;;10.00;;
57341;SDS011;43175;51.002;18.316;2022-10-16T12:36:02;16.30;;;10.30;;
57341;SDS011;43175;51.002;18.316;2022-10-16T12:38:38;17.20;;;9.80;;
57341;SDS011;43175;51.002;18.316;2022-10-16T12:41:12;18.30;;;10.00;;
57341;SDS011;43175;51.002;18.316;2022-10-16T12:43:40;16.90;;;9.80;;
57341;SDS011;43175;51.002;18.316;2022-10-16T12:48:33;18.90;;;11.20;;
57341;SDS011;43175;51.002;18.316;2022-10-16T12:53:58;16.50;;;10.10;;
57341;SDS011;43175;51.002;18.316;2022-10-16T13:02:02;16.80;;;10.00;;
57341;SDS011;43175;51.002;18.316;2022-10-16T13:15:31;16.00;;;10.00;;
57341;SDS011;43175;51.002;18.316;2022-10-16T13:29:15;16.50;;;10.00;;
57341;SDS011;43175;51.002;18.316;2022-10-16T13:31:40;17.10;;;10.30;;
57341;SDS011;43175;51.002;18.316;2022-10-16T13:34:11;19.50;;;11.10;;
57341;SDS011;43175;51.002;18.316;2022-10-16T13:36:48;16.90;;;11.20;;
57341;SDS011;43175;51.002;18.316;2022-10-16T13:44:44;18.20;;;11.00;;
57341;SDS011;43175;51.002;18.316;2022-10-16T13:47:15;18.10;;;11.30;;
57341;SDS011;43175;51.002;18.316;2022-10-16T13:49:42;17.50;;;10.80;;
57341;SDS011;43175;51.002;18.316;2022-10-16T13:52:15;18.60;;;11.10;;
57341;SDS011;43175;51.002;18.316;2022-10-16T13:54:43;20.00;;;11.70;;
57341;SDS011;43175;51.002;18.316;2022-10-16T13:57:11;18.00;;;11.20;;
57341;SDS011;43175;51.002;18.316;2022-10-16T13:59:38;20.00;;;11.50;;
57341;SDS011;43175;51.002;18.316;2022-10-16T14:02:06;17.80;;;11.90;;
57341;SDS011;43175;51.002;18.316;2022-10-16T14:05:00;19.50;;;12.00;;
57341;SDS011;43175;51.002;18.316;2022-10-16T14:07:29;17.90;;;11.50;;
57341;SDS011;43175;51.002;18.316;2022-10-16T14:09:57;18.80;;;12.20;;
57341;SDS011;43175;51.002;18.316;2022-10-16T14:12:26;18.90;;;11.40;;
57341;SDS011;43175;51.002;18.316;2022-10-16T14:14:52;17.80;;;11.50;;
57341;SDS011;43175;51.002;18.316;2022-10-16T14:17:20;17.50;;;11.00;;
57341;SDS011;43175;51.002;18.316;2022-10-16T14:19:49;17.80;;;11.10;;
57341;SDS011;43175;51.002;18.316;2022-10-16T14:25:24;16.40;;;10.50;;
57341;SDS011;43175;51.002;18.316;2022-10-16T14:27:59;18.90;;;11.30;;
57341;SDS011;43175;51.002;18.316;2022-10-16T14:30:27;18.00;;;10.20;;
57341;SDS011;43175;51.002;18.316;2022-10-16T14:35:40;15.70;;;10.60;;
57341;SDS011;43175;51.002;18.316;2022-10-16T14:38:05;17.60;;;11.00;;
57341;SDS011;43175;51.002;18.316;2022-10-16T14:40:45;18.50;;;11.30;;
57341;SDS011;43175;51.002;18.316;2022-10-16T14:43:19;17.60;;;10.90;;
57341;SDS011;43175;51.002;18.316;2022-10-16T14:45:50;16.80;;;10.90;;
57341;SDS011;43175;51.002;18.316;2022-10-16T14:48:17;19.90;;;11.80;;
57341;SDS011;43175;51.002;18.316;2022-10-16T14:50:44;19.00;;;11.50;;
57341;SDS011;43175;51.002;18.316;2022-10-16T14:53:12;18.20;;;11.10;;
57341;SDS011;43175;51.002;18.316;2022-10-16T14:55:39;18.90;;;11.40;;
57341;SDS011;43175;51.002;18.316;2022-10-16T14:58:05;18.60;;;11.80;;
57341;SDS011;43175;51.002;18.316;2022-10-16T15:00:31;21.30;;;13.00;;
57341;SDS011;43175;51.002;18.316;2022-10-16T15:02:56;19.10;;;12.30;;
57341;SDS011;43175;51.002;18.316;2022-10-16T15:05:26;19.60;;;12.20;;
57341;SDS011;43175;51.002;18.316;2022-10-16T15:07:52;20.20;;;12.10;;
57341;SDS011;43175;51.002;18.316;2022-10-16T15:10:19;19.80;;;12.90;;
57341;SDS011;43175;51.002;18.316;2022-10-16T15:12:46;20.80;;;12.90;;
57341;SDS011;43175;51.002;18.316;2022-10-16T15:15:15;20.80;;;13.30;;
57341;SDS011;43175;51.002;18.316;2022-10-16T15:17:47;20.30;;;13.10;;
57341;SDS011;43175;51.002;18.316;2022-10-16T15:20:13;20.70;;;13.10;;
57341;SDS011;43175;51.002;18.316;2022-10-16T15:22:39;23.00;;;13.90;;
57341;SDS011;43175;51.002;18.316;2022-10-16T15:25:10;20.40;;;13.20;;
57341;SDS011;43175;51.002;18.316;2022-10-16T15:27:41;20.20;;;13.40;;
57341;SDS011;43175;51.002;18.316;2022-10-16T15:30:07;21.50;;;14.00;;
57341;SDS011;43175;51.002;18.316;2022-10-16T15:32:32;22.20;;;14.70;;
57341;SDS011;43175;51.002;18.316;2022-10-16T15:34:58;23.60;;;15.40;;
57341;SDS011;43175;51.002;18.316;2022-10-16T15:37:23;21.00;;;13.90;;
57341;SDS011;43175;51.002;18.316;2022-10-16T15:39:50;21.00;;;14.00;;
57341;SDS011;43175;51.002;18.316;2022-10-16T15:42:15;22.30;;;14.50;;
57341;SDS011;43175;51.002;18.316;2022-10-16T15:44:41;22.10;;;14.80;;
57341;SDS011;43175;51.002;18.316;2022-10-16T15:47:07;22.70;;;15.70;;
57341;SDS011;43175;51.002;18.316;2022-10-16T15:49:32;22.90;;;15.70;;
57341;SDS011;43175;51.002;18.316;2022-10-16T15:51:58;25.10;;;15.40;;
57341;SDS011;43175;51.002;18.316;2022-10-16T15:54:23;25.00;;;16.60;;
57341;SDS011;43175;51.002;18.316;2022-10-16T15:56:49;23.70;;;16.40;;
57341;SDS011;43175;51.002;18.316;2022-10-16T15:59:14;26.50;;;16.20;;
57341;SDS011;43175;51.002;18.316;2022-10-16T16:01:40;25.30;;;16.40;;
57341;SDS011;43175;51.002;18.316;2022-10-16T16:04:06;27.10;;;17.10;;
57341;SDS011;43175;51.002;18.316;2022-10-16T16:06:31;24.30;;;16.70;;